Time;durP1;ratioP1;P1;durP2;ratioP2;P2;SDS_P1;SDS_P2;PMS_P1;PMS_P2;Temp;Humidity;BMP_temperature;BMP_pressure;BME280_temperature;BME280_humidity;BME280_pressure;Samples;Min_cycle;Max_cycle;Signal;HPM_P1;HPM_P2
2022/01/05 00:01:17;;;;;;;5.53;4.47;;;7.00;99.90;;;;;;12825823;23;20590;-74
2022/01/05 00:06:18;;;;;;;6.73;4.63;;;7.00;99.90;;;;;;12828963;23;20203;-75
2022/01/05 00:11:19;;;;;;;5.27;4.60;;;6.90;99.90;;;;;;12827152;23;20255;-74
2022/01/05 00:16:19;;;;;;;7.03;5.20;;;7.00;99.90;;;;;;12828317;23;20227;-73
2022/01/05 00:21:20;;;;;;;5.37;4.87;;;7.00;99.90;;;;;;12828271;23;20520;-74
2022/01/05 00:26:21;;;;;;;5.17;4.67;;;7.00;99.90;;;;;;12828074;23;20207;-75
2022/01/05 00:31:22;;;;;;;6.07;4.87;;;7.00;99.90;;;;;;12854186;23;20204;-74
2022/01/05 00:36:23;;;;;;;5.97;5.40;;;6.90;99.90;;;;;;12827533;23;20271;-74
2022/01/05 00:41:23;;;;;;;5.90;5.30;;;7.00;99.90;;;;;;12853357;23;20628;-74
2022/01/05 00:46:24;;;;;;;6.17;5.57;;;6.90;99.90;;;;;;12827386;23;20196;-75
2022/01/05 00:51:25;;;;;;;6.27;5.67;;;7.00;99.90;;;;;;12827273;23;20811;-74
2022/01/05 00:56:25;;;;;;;6.87;6.23;;;6.90;99.90;;;;;;12853833;23;20215;-74
2022/01/05 01:01:26;;;;;;;6.40;5.80;;;6.90;99.90;;;;;;12853489;23;20639;-72
2022/01/05 01:06:27;;;;;;;7.10;6.40;;;6.90;99.90;;;;;;12853017;23;20247;-73
2022/01/05 01:11:27;;;;;;;8.03;7.23;;;6.80;99.90;;;;;;12852207;23;20643;-73
2022/01/05 01:16:28;;;;;;;7.20;6.50;;;6.80;99.90;;;;;;12853892;23;20205;-74
2022/01/05 01:21:29;;;;;;;7.27;6.33;;;6.80;99.90;;;;;;12851394;23;20226;-73
2022/01/05 01:26:32;;;;;;;7.33;6.63;;;6.80;99.90;;;;;;12825231;23;20196;-74
2022/01/05 01:31:33;;;;;;;7.23;6.53;;;6.80;99.90;;;;;;12851204;23;20291;-73
2022/01/05 01:36:34;;;;;;;7.43;6.00;;;6.80;99.90;;;;;;12852916;23;20243;-76
2022/01/05 01:41:35;;;;;;;6.33;5.47;;;6.80;99.90;;;;;;12826057;23;20636;-75
2022/01/05 01:46:36;;;;;;;4.83;4.43;;;6.90;99.90;;;;;;12830741;23;20196;-75
2022/01/05 01:51:36;;;;;;;4.27;3.87;;;6.80;99.90;;;;;;12833632;23;20230;-74
2022/01/05 01:56:38;;;;;;;5.23;3.30;;;6.80;99.90;;;;;;12817085;23;20214;-75
2022/01/05 02:01:42;;;;;;;2.93;2.50;;;6.80;99.90;;;;;;12820173;23;20203;-75
2022/01/05 02:06:44;;;;;;;3.50;2.10;;;6.90;99.90;;;;;;12858535;23;20712;-75
2022/01/05 02:11:47;;;;;;;1.67;1.40;;;6.90;99.90;;;;;;12830743;23;20199;-76
2022/01/05 02:16:48;;;;;;;1.83;1.30;;;6.90;99.90;;;;;;12833610;23;20335;-75
2022/01/05 02:21:49;;;;;;;4.43;2.00;;;6.90;99.90;;;;;;12854787;23;20195;-75
2022/01/05 02:26:49;;;;;;;2.47;2.00;;;6.90;99.90;;;;;;12856392;23;20268;-74
2022/01/05 02:31:50;;;;;;;2.90;2.33;;;6.90;99.90;;;;;;12855395;23;20246;-75
2022/01/05 02:36:51;;;;;;;4.50;2.90;;;6.90;99.90;;;;;;12830493;23;20295;-75
2022/01/05 02:41:52;;;;;;;4.27;3.10;;;6.90;99.90;;;;;;12829026;23;20204;-75
2022/01/05 02:46:53;;;;;;;4.80;2.93;;;6.90;99.90;;;;;;12856964;23;20206;-74
2022/01/05 02:51:53;;;;;;;1.10;0.80;;;6.90;99.90;;;;;;12828320;23;20211;-74
2022/01/05 02:56:54;;;;;;;1.93;0.93;;;6.60;99.90;;;;;;12853377;23;20208;-76
2022/01/05 03:01:58;;;;;;;1.37;0.77;;;5.90;99.90;;;;;;12854258;23;20214;-73
2022/01/05 03:06:58;;;;;;;1.60;1.00;;;5.60;99.90;;;;;;12853403;23;20836;-73
2022/01/05 03:11:59;;;;;;;1.00;0.60;;;5.40;99.90;;;;;;12854312;23;20326;-73
2022/01/05 03:16:59;;;;;;;2.80;1.17;;;5.40;99.90;;;;;;12854203;23;20319;-74
2022/01/05 03:22:00;;;;;;;2.03;1.10;;;5.30;99.90;;;;;;12854861;23;20196;-74
2022/01/05 03:27:01;;;;;;;1.30;0.83;;;5.30;99.90;;;;;;12827574;23;20203;-75
2022/01/05 03:32:01;;;;;;;1.40;0.90;;;5.30;99.90;;;;;;12854551;23;20200;-78
2022/01/05 03:37:04;;;;;;;1.00;0.73;;;5.30;99.90;;;;;;12827208;23;20214;-75
2022/01/05 03:42:05;;;;;;;2.10;1.00;;;5.20;99.90;;;;;;12827432;23;20858;-75
2022/01/05 03:47:07;;;;;;;1.17;1.00;;;5.10;99.90;;;;;;12855071;23;20591;-77
2022/01/05 03:52:24;;;;;;;0.93;0.73;;;5.20;99.90;;;;;;12855707;23;20752;-76
2022/01/05 03:57:25;;;;;;;0.63;0.63;;;5.20;99.90;;;;;;12851579;23;20539;-74
2022/01/05 04:02:25;;;;;;;1.67;0.90;;;5.20;99.90;;;;;;12853744;23;20230;-74
2022/01/05 04:07:26;;;;;;;3.00;1.00;;;5.10;99.90;;;;;;12827135;23;20200;-75
2022/01/05 04:12:27;;;;;;;0.60;0.47;;;5.10;99.90;;;;;;12853245;23;20841;-73
2022/01/05 04:17:28;;;;;;;1.53;1.13;;;5.10;99.90;;;;;;12825933;23;20204;-73
2022/01/05 04:22:29;;;;;;;1.40;0.77;;;5.10;99.90;;;;;;12853774;23;20686;-73
2022/01/05 04:27:30;;;;;;;2.63;0.70;;;5.10;99.90;;;;;;12827326;23;20271;-75
2022/01/05 04:32:31;;;;;;;1.10;0.93;;;5.10;99.90;;;;;;12856731;23;20207;-76
2022/01/05 04:37:38;;;;;;;2.03;0.80;;;5.10;99.90;;;;;;12828969;23;20207;-75
2022/01/05 04:42:39;;;;;;;2.67;1.10;;;5.10;99.90;;;;;;12827403;23;20659;-74
2022/01/05 04:47:40;;;;;;;8.43;1.07;;;5.00;99.90;;;;;;12827442;23;20270;-77
2022/01/05 04:52:41;;;;;;;1.93;0.83;;;5.10;99.90;;;;;;12853780;23;20254;-75
2022/01/05 04:57:42;;;;;;;1.97;1.20;;;5.00;99.90;;;;;;12828377;23;20203;-76
2022/01/05 05:02:42;;;;;;;2.67;0.90;;;5.00;99.90;;;;;;12829728;23;20224;-74
2022/01/05 05:07:50;;;;;;;3.90;0.93;;;5.00;99.90;;;;;;12810529;23;20199;-76
2022/01/05 05:12:51;;;;;;;4.87;1.40;;;5.00;99.90;;;;;;12828087;23;20211;-76
2022/01/05 05:17:54;;;;;;;2.30;1.17;;;5.10;99.90;;;;;;12855827;23;20203;-78
2022/01/05 05:22:55;;;;;;;5.10;1.80;;;5.10;99.90;;;;;;12856821;23;20195;-77
2022/01/05 05:27:55;;;;;;;4.63;2.10;;;5.10;99.90;;;;;;12829941;23;20227;-77
2022/01/05 05:32:57;;;;;;;4.83;2.37;;;5.00;99.90;;;;;;12830152;23;20575;-76
2022/01/05 05:37:59;;;;;;;6.57;2.53;;;5.00;99.90;;;;;;12855541;23;20205;-77
2022/01/05 05:43:01;;;;;;;6.60;2.30;;;5.00;99.90;;;;;;12856359;23;20215;-77
2022/01/05 05:48:01;;;;;;;3.23;1.90;;;5.10;99.90;;;;;;12854660;23;20258;-76
2022/01/05 05:53:02;;;;;;;3.10;1.63;;;5.10;99.90;;;;;;12803514;23;20585;-76
2022/01/05 05:58:03;;;;;;;7.53;2.20;;;5.10;99.90;;;;;;12825649;23;20212;-75
2022/01/05 06:03:04;;;;;;;8.50;1.57;;;5.20;99.90;;;;;;12852963;23;20220;-75
2022/01/05 06:08:04;;;;;;;4.07;1.40;;;5.20;99.90;;;;;;12825368;23;20676;-76
2022/01/05 06:13:05;;;;;;;6.73;1.60;;;5.10;99.90;;;;;;12853053;23;20297;-75
2022/01/05 06:18:05;;;;;;;4.93;1.57;;;4.90;99.90;;;;;;12825569;23;20210;-76
2022/01/05 06:23:06;;;;;;;6.07;1.33;;;4.80;99.90;;;;;;12853215;23;20200;-75
2022/01/05 06:28:11;;;;;;;4.50;1.17;;;4.80;99.90;;;;;;12827015;23;20646;-77
2022/01/05 06:33:11;;;;;;;4.57;1.50;;;4.70;99.90;;;;;;12855915;23;20731;-77
2022/01/05 06:38:12;;;;;;;4.83;1.30;;;4.50;99.90;;;;;;12856177;23;20275;-76
2022/01/05 06:43:14;;;;;;;3.53;1.60;;;4.40;99.90;;;;;;12828664;23;20218;-75
2022/01/05 06:48:14;;;;;;;7.33;1.53;;;4.40;99.90;;;;;;12854195;23;20204;-75
2022/01/05 06:53:15;;;;;;;4.60;1.63;;;4.30;99.90;;;;;;12854809;23;20211;-76
2022/01/05 06:58:16;;;;;;;7.73;1.60;;;4.10;99.90;;;;;;12827704;23;20218;-75
2022/01/05 07:03:16;;;;;;;3.30;1.20;;;3.90;99.90;;;;;;12827631;23;20563;-75
2022/01/05 07:08:18;;;;;;;4.33;1.90;;;3.70;99.90;;;;;;12859024;23;20230;-76
2022/01/05 07:13:18;;;;;;;8.10;2.20;;;3.50;99.90;;;;;;12862177;23;20259;-75
2022/01/05 07:18:19;;;;;;;4.60;1.43;;;3.50;99.90;;;;;;12854411;23;20328;-76
2022/01/05 07:23:19;;;;;;;6.47;1.53;;;3.40;99.90;;;;;;12856777;23;20749;-76
2022/01/05 07:28:23;;;;;;;7.47;1.90;;;3.40;99.90;;;;;;12827479;23;20526;-77
2022/01/05 07:33:26;;;;;;;3.10;1.47;;;3.30;99.90;;;;;;12828408;23;20215;-77
2022/01/05 07:38:28;;;;;;;3.17;1.50;;;3.30;99.90;;;;;;12856510;23;20212;-77
2022/01/05 07:43:29;;;;;;;6.40;1.80;;;3.30;99.90;;;;;;12827649;23;20792;-77
2022/01/05 07:48:30;;;;;;;7.90;1.77;;;3.20;99.90;;;;;;12828589;23;20214;-76
2022/01/05 07:53:30;;;;;;;5.03;2.10;;;3.20;99.90;;;;;;12855359;23;20200;-76
2022/01/05 07:58:31;;;;;;;7.33;1.80;;;3.30;99.90;;;;;;12827751;23;20223;-78
2022/01/05 08:03:33;;;;;;;4.63;1.60;;;3.30;99.90;;;;;;12854126;23;20247;-75
2022/01/05 08:08:33;;;;;;;7.63;1.90;;;3.30;99.90;;;;;;12826509;23;20219;-74
2022/01/05 08:13:34;;;;;;;4.67;1.73;;;3.40;99.90;;;;;;12854235;23;20212;-74
2022/01/05 08:18:35;;;;;;;5.47;1.83;;;3.50;99.90;;;;;;12827049;23;20283;-75
2022/01/05 08:23:36;;;;;;;7.27;2.37;;;3.60;99.90;;;;;;12854316;23;20211;-74
2022/01/05 08:28:37;;;;;;;4.53;1.83;;;3.80;99.90;;;;;;12854355;23;20210;-74
2022/01/05 08:33:38;;;;;;;5.73;2.03;;;3.90;99.90;;;;;;12855133;23;20229;-74
2022/01/05 08:38:38;;;;;;;4.50;1.80;;;4.10;99.90;;;;;;12825906;23;20212;-75
2022/01/05 08:43:39;;;;;;;6.40;1.97;;;4.30;99.90;;;;;;12854082;23;20207;-76
2022/01/05 08:48:42;;;;;;;5.73;2.00;;;4.50;99.90;;;;;;12827930;23;20200;-76
2022/01/05 08:53:42;;;;;;;7.73;2.17;;;5.00;99.90;;;;;;12852569;23;20200;-75
2022/01/05 08:58:43;;;;;;;7.33;1.73;;;6.80;99.90;;;;;;12826005;23;20283;-75
2022/01/05 09:03:43;;;;;;;7.50;2.43;;;11.00;99.90;;;;;;12825688;23;20202;-74
2022/01/05 09:08:47;;;;;;;5.23;1.67;;;14.20;87.20;;;;;;12825976;23;20205;-75
2022/01/05 09:13:48;;;;;;;7.27;1.73;;;16.30;63.60;;;;;;12851001;23;20207;-74
2022/01/05 09:18:50;;;;;;;11.13;2.37;;;17.20;56.40;;;;;;12824342;23;20558;-74
2022/01/05 09:23:51;;;;;;;7.20;2.60;;;18.10;52.50;;;;;;12825196;23;20264;-72
2022/01/05 09:28:52;;;;;;;6.30;2.30;;;19.00;49.30;;;;;;12855421;23;20217;-79
2022/01/05 09:33:53;;;;;;;6.47;1.90;;;18.60;46.90;;;;;;12854317;23;20192;-79
2022/01/05 09:44:13;;;;;;;5.60;2.23;;;19.40;43.30;;;;;;12877848;23;20192;-78
2022/01/05 09:49:32;;;;;;;10.10;2.27;;;18.00;45.70;;;;;;12805914;23;20200;-76
2022/01/05 09:54:34;;;;;;;7.23;2.00;;;18.30;46.10;;;;;;12855183;23;20203;-78
2022/01/05 09:59:35;;;;;;;8.93;2.40;;;19.30;43.20;;;;;;12855488;23;20232;-76
2022/01/05 10:04:36;;;;;;;6.90;2.03;;;19.90;41.80;;;;;;12853467;23;20200;-75
2022/01/05 10:09:38;;;;;;;8.33;2.27;;;20.60;41.80;;;;;;12856079;23;20674;-76
2022/01/05 10:14:44;;;;;;;7.20;2.40;;;20.00;40.10;;;;;;12855930;23;20735;-76
2022/01/05 10:19:46;;;;;;;8.70;2.20;;;20.10;40.90;;;;;;12856551;23;20659;-75
2022/01/05 10:24:47;;;;;;;9.03;2.60;;;19.80;40.90;;;;;;12830185;23;20199;-74
2022/01/05 10:29:55;;;;;;;8.43;1.90;;;16.20;46.30;;;;;;12856903;23;20225;-76
2022/01/05 10:35:07;;;;;;;8.27;2.53;;;12.40;54.30;;;;;;12857700;23;20554;-75
2022/01/05 10:40:14;;;;;;;11.00;2.40;;;10.50;61.60;;;;;;12829388;23;20873;-74
2022/01/05 10:45:18;;;;;;;6.70;2.20;;;9.30;67.90;;;;;;12856019;23;20163;-74
2022/01/05 10:50:20;;;;;;;13.30;2.40;;;8.60;71.50;;;;;;12855991;23;20159;-74
2022/01/05 10:55:23;;;;;;;8.83;2.37;;;8.00;75.20;;;;;;12857292;23;20175;-75
2022/01/05 11:00:38;;;;;;;6.53;2.60;;;7.60;78.80;;;;;;12850286;23;20300;-77
2022/01/05 11:05:40;;;;;;;8.40;1.80;;;7.50;81.90;;;;;;12829108;23;20281;-76
2022/01/05 11:10:41;;;;;;;10.60;1.93;;;7.20;84.10;;;;;;12856625;23;20546;-75
2022/01/05 11:15:41;;;;;;;7.30;1.97;;;7.20;87.30;;;;;;12856854;23;20196;-76
2022/01/05 11:20:46;;;;;;;6.20;2.47;;;7.00;90.20;;;;;;12854849;23;20313;-76
2022/01/05 11:25:48;;;;;;;10.67;2.20;;;6.90;91.50;;;;;;12854868;23;20196;-75
2022/01/05 11:30:51;;;;;;;9.93;2.30;;;6.80;93.40;;;;;;12832459;23;20744;-77
2022/01/05 11:35:52;;;;;;;7.73;1.90;;;6.70;94.00;;;;;;12862658;23;20254;-78
2022/01/05 11:40:55;;;;;;;4.80;1.67;;;6.50;95.70;;;;;;12858437;23;20196;-76
2022/01/05 11:45:57;;;;;;;10.70;2.17;;;6.50;97.30;;;;;;12831295;23;20822;-76
2022/01/05 11:51:01;;;;;;;7.83;2.07;;;6.40;99.30;;;;;;12868882;23;20203;-76
2022/01/05 11:56:06;;;;;;;7.10;2.07;;;6.40;99.90;;;;;;12859118;23;20192;-76
2022/01/05 12:01:13;;;;;;;7.43;1.90;;;6.40;99.90;;;;;;12857593;23;20223;-76
2022/01/05 12:06:14;;;;;;;9.50;2.10;;;6.40;99.90;;;;;;12830967;23;20944;-76
2022/01/05 12:11:33;;;;;;;5.73;2.20;;;6.30;99.90;;;;;;12827493;23;20208;-77
2022/01/05 12:16:59;;;;;;;5.57;1.57;;;6.30;99.90;;;;;;12816243;23;20212;-78
2022/01/05 12:22:19;;;;;;;6.37;2.27;;;6.30;99.90;;;;;;12835082;23;20212;-77
2022/01/05 12:27:21;;;;;;;8.67;1.87;;;6.30;99.90;;;;;;12862998;23;20246;-77
2022/01/05 12:32:59;;;;;;;5.47;1.37;;;6.30;99.90;;;;;;12862534;23;20204;-76
2022/01/05 12:38:04;;;;;;;6.27;1.77;;;6.30;99.90;;;;;;12855106;23;20552;-76
2022/01/05 12:43:12;;;;;;;7.13;1.87;;;6.20;99.90;;;;;;12856898;23;20199;-77
2022/01/05 12:48:31;;;;;;;9.50;2.17;;;6.10;99.90;;;;;;12859491;23;20633;-77
2022/01/05 12:53:35;;;;;;;9.47;1.93;;;6.20;99.90;;;;;;12835098;23;20243;-76
2022/01/05 12:58:39;;;;;;;8.77;2.03;;;6.20;99.90;;;;;;12814909;23;20283;-78
2022/01/05 13:03:40;;;;;;;10.43;2.10;;;6.20;99.90;;;;;;12842784;23;20203;-77
2022/01/05 13:08:55;;;;;;;6.03;1.67;;;6.20;99.90;;;;;;12831161;23;20224;-76
2022/01/05 13:14:18;;;;;;;8.10;2.17;;;6.10;99.90;;;;;;12858428;23;20335;-76
2022/01/05 13:19:47;;;;;;;5.20;1.57;;;6.10;99.90;;;;;;12856850;23;20208;-76
2022/01/05 13:25:08;;;;;;;11.07;2.03;;;6.10;99.90;;;;;;12856063;23;20196;-78
2022/01/05 13:30:21;;;;;;;4.67;1.57;;;6.00;99.90;;;;;;12825972;23;20192;-76
2022/01/05 13:35:27;;;;;;;6.57;1.97;;;6.00;99.90;;;;;;12829165;23;20403;-76
2022/01/05 13:40:33;;;;;;;10.30;1.90;;;6.00;99.90;;;;;;12853412;23;20766;-76
2022/01/05 13:45:38;;;;;;;5.20;1.80;;;6.00;99.90;;;;;;12853354;23;20294;-76
2022/01/05 13:50:41;;;;;;;5.17;1.60;;;6.00;99.90;;;;;;12826733;23;20591;-77
2022/01/05 13:55:49;;;;;;;4.77;1.53;;;6.00;99.90;;;;;;12856748;23;20248;-76
2022/01/05 14:01:04;;;;;;;6.97;1.73;;;5.90;99.90;;;;;;12828567;23;20208;-77
2022/01/05 14:06:07;;;;;;;4.23;1.63;;;5.90;99.90;;;;;;12827161;23;20204;-77
2022/01/05 14:11:18;;;;;;;4.57;1.80;;;5.80;99.90;;;;;;12857146;23;20204;-78
2022/01/05 14:16:38;;;;;;;2.97;1.40;;;5.80;99.90;;;;;;12860503;23;20502;-77
2022/01/05 14:21:47;;;;;;;6.30;2.00;;;5.80;99.90;;;;;;12857445;23;20705;-77
2022/01/05 14:26:48;;;;;;;3.93;1.97;;;5.80;99.90;;;;;;12860347;23;20200;-76
2022/01/05 14:31:48;;;;;;;5.27;1.90;;;5.70;99.90;;;;;;12856167;23;20200;-76
2022/01/05 14:37:02;;;;;;;6.07;1.77;;;5.70;99.90;;;;;;12857007;23;20208;-76
2022/01/05 14:42:03;;;;;;;6.30;2.03;;;5.60;99.90;;;;;;12832469;23;20196;-77
2022/01/05 14:47:15;;;;;;;4.43;1.87;;;5.50;99.90;;;;;;12828489;23;20656;-77
2022/01/05 14:52:22;;;;;;;4.63;1.90;;;5.50;99.90;;;;;;12832231;23;20250;-77
2022/01/05 14:57:22;;;;;;;6.97;2.17;;;5.40;99.90;;;;;;12864788;23;20236;-77
2022/01/05 15:02:23;;;;;;;8.77;2.23;;;5.40;99.90;;;;;;12838335;23;20664;-77
2022/01/05 15:07:24;;;;;;;7.23;1.87;;;5.40;99.90;;;;;;12858025;23;20230;-77
2022/01/05 15:12:24;;;;;;;9.47;2.20;;;5.40;99.90;;;;;;12834046;23;20204;-76
2022/01/05 15:17:25;;;;;;;6.07;1.93;;;5.30;99.90;;;;;;12860246;23;20290;-77
2022/01/05 15:22:25;;;;;;;10.67;2.33;;;5.40;99.90;;;;;;12858097;23;20727;-75
2022/01/05 15:27:26;;;;;;;6.90;1.97;;;5.40;99.90;;;;;;12857833;23;20207;-75
2022/01/05 15:32:27;;;;;;;9.47;2.27;;;5.30;99.90;;;;;;12864377;23;20204;-80
2022/01/05 15:37:30;;;;;;;5.73;1.70;;;5.30;99.90;;;;;;12835615;23;20204;-77
2022/01/05 15:42:31;;;;;;;8.93;2.03;;;5.30;99.90;;;;;;12855477;23;20547;-72
2022/01/05 15:47:32;;;;;;;7.10;2.07;;;5.30;99.90;;;;;;12849786;23;20202;-75
2022/01/05 15:52:32;;;;;;;5.93;2.57;;;5.30;99.90;;;;;;12831433;23;20196;-75
2022/01/05 16:02:58;;;;;;;8.50;2.17;;;5.20;99.90;;;;;;12844036;23;20215;-75
2022/01/05 16:07:58;;;;;;;6.47;2.10;;;5.20;99.90;;;;;;12828559;23;20211;-74
2022/01/05 16:12:59;;;;;;;7.57;2.40;;;5.20;99.90;;;;;;12856450;23;20284;-75
2022/01/05 16:17:59;;;;;;;7.57;2.37;;;5.20;99.90;;;;;;12855484;23;20200;-76
2022/01/05 16:23:00;;;;;;;6.30;2.10;;;5.20;99.90;;;;;;12829851;23;20233;-74
2022/01/05 16:28:00;;;;;;;4.43;1.60;;;5.20;99.90;;;;;;12853711;23;20230;-74
2022/01/05 16:33:01;;;;;;;4.20;1.90;;;5.20;99.90;;;;;;12855778;23;20522;-74
2022/01/05 16:38:02;;;;;;;5.03;2.03;;;5.20;99.90;;;;;;12820651;23;20770;-75
2022/01/05 16:43:03;;;;;;;7.60;1.90;;;5.10;99.90;;;;;;12828645;23;20199;-74
2022/01/05 16:48:05;;;;;;;5.33;1.90;;;5.10;99.90;;;;;;12828764;23;20744;-75
2022/01/05 16:53:06;;;;;;;6.67;2.10;;;5.10;99.90;;;;;;12855172;23;20195;-75
2022/01/05 17:03:26;;;;;;;5.47;2.10;;;5.10;99.90;;;;;;12856739;23;20196;-74
2022/01/05 17:08:27;;;;;;;8.07;2.20;;;5.10;99.90;;;;;;12826831;23;20207;-74
2022/01/05 17:13:31;;;;;;;8.00;2.30;;;5.10;99.90;;;;;;12854887;23;20522;-75
2022/01/05 17:18:31;;;;;;;7.10;2.67;;;5.10;99.90;;;;;;12853568;23;20370;-74
2022/01/05 17:23:32;;;;;;;7.63;2.53;;;5.10;99.90;;;;;;12830449;23;20258;-75
2022/01/05 17:28:33;;;;;;;11.10;2.67;;;5.10;99.90;;;;;;12855912;23;20199;-75
2022/01/05 17:33:35;;;;;;;5.03;2.13;;;5.00;99.90;;;;;;12852120;23;20679;-75
2022/01/05 17:38:36;;;;;;;9.20;2.80;;;5.00;99.90;;;;;;12852586;23;20226;-75
2022/01/05 17:43:37;;;;;;;7.67;2.60;;;5.10;99.90;;;;;;12827297;23;20215;-76
2022/01/05 17:48:38;;;;;;;6.57;2.33;;;5.00;99.90;;;;;;12851373;23;20208;-76
2022/01/05 17:53:39;;;;;;;9.07;2.10;;;5.00;99.90;;;;;;12828517;23;20319;-75
2022/01/05 17:58:39;;;;;;;6.53;2.50;;;5.00;99.90;;;;;;12855223;23;20216;-75
2022/01/05 18:03:40;;;;;;;12.87;2.93;;;5.00;99.90;;;;;;12855489;23;20247;-75
2022/01/05 18:08:40;;;;;;;8.73;2.40;;;5.00;99.90;;;;;;12854891;23;20703;-75
2022/01/05 18:13:41;;;;;;;6.67;2.30;;;5.00;99.90;;;;;;12856177;23;20305;-75
2022/01/05 18:18:42;;;;;;;8.80;2.43;;;5.00;99.90;;;;;;12855033;23;20204;-75
2022/01/05 18:23:46;;;;;;;6.87;2.87;;;5.00;99.90;;;;;;12854583;23;20206;-76
2022/01/05 18:28:52;;;;;;;12.53;3.43;;;5.00;99.90;;;;;;12858038;23;20204;-76
2022/01/05 18:33:53;;;;;;;5.80;2.70;;;5.00;99.90;;;;;;12858643;23;20223;-76
2022/01/05 18:38:55;;;;;;;6.03;2.17;;;5.10;99.90;;;;;;12828600;23;20208;-75
2022/01/05 18:43:56;;;;;;;10.13;3.87;;;5.10;99.90;;;;;;12857930;23;20203;-75
2022/01/05 18:48:57;;;;;;;7.93;2.90;;;5.10;99.90;;;;;;12857494;23;20555;-75
2022/01/05 18:53:58;;;;;;;8.07;3.50;;;5.10;99.90;;;;;;12832216;23;20208;-75
2022/01/05 18:59:00;;;;;;;8.73;3.10;;;5.20;99.90;;;;;;12861133;23;20212;-75
2022/01/05 19:04:02;;;;;;;8.53;2.70;;;5.20;99.90;;;;;;12859157;23;20198;-75
2022/01/05 19:09:02;;;;;;;8.50;2.73;;;5.20;99.90;;;;;;12857377;23;20274;-76
2022/01/05 19:14:05;;;;;;;9.10;2.80;;;5.20;99.90;;;;;;12829806;23;20288;-76
2022/01/05 19:19:05;;;;;;;7.13;2.73;;;5.20;99.90;;;;;;12834944;23;20211;-77
2022/01/05 19:24:07;;;;;;;9.37;3.27;;;5.20;99.90;;;;;;12864589;23;20200;-78
2022/01/05 19:29:08;;;;;;;7.53;2.77;;;5.20;99.90;;;;;;12834466;23;20203;-77
2022/01/05 19:34:09;;;;;;;7.97;2.80;;;5.20;99.90;;;;;;12832775;23;20282;-77
2022/01/05 19:39:10;;;;;;;11.23;3.73;;;5.20;99.90;;;;;;12856411;23;20215;-76
2022/01/05 19:44:13;;;;;;;6.90;2.77;;;5.10;99.90;;;;;;12836168;23;20203;-76
2022/01/05 19:49:15;;;;;;;10.93;2.90;;;5.10;99.90;;;;;;12832288;23;20652;-77
2022/01/05 19:54:26;;;;;;;9.50;3.10;;;5.00;99.90;;;;;;12839538;23;20204;-76
2022/01/05 19:59:29;;;;;;;7.33;3.13;;;5.10;99.90;;;;;;12832535;23;20215;-77
2022/01/05 20:04:30;;;;;;;8.83;3.10;;;5.10;99.90;;;;;;12861233;23;20195;-78
2022/01/05 20:09:30;;;;;;;10.30;3.00;;;5.10;99.90;;;;;;12858372;23;20214;-76
2022/01/05 20:14:33;;;;;;;10.00;3.07;;;5.10;99.90;;;;;;12829005;23;20200;-76
2022/01/05 20:19:33;;;;;;;9.27;3.20;;;5.10;99.90;;;;;;12829377;23;20259;-76
2022/01/05 20:24:34;;;;;;;8.63;3.30;;;5.20;99.90;;;;;;12831334;23;20647;-78
2022/01/05 20:29:35;;;;;;;7.83;2.50;;;5.20;99.90;;;;;;12831056;23;20209;-77
2022/01/05 20:34:37;;;;;;;12.30;3.20;;;5.30;99.90;;;;;;12859358;23;20251;-77
2022/01/05 20:39:39;;;;;;;9.50;2.70;;;5.30;99.90;;;;;;12813284;23;20325;-77
2022/01/05 20:44:39;;;;;;;9.47;3.03;;;5.30;99.90;;;;;;12856034;23;20324;-77
2022/01/05 20:49:40;;;;;;;9.57;3.27;;;5.30;99.90;;;;;;12828767;23;20211;-77
2022/01/05 20:54:41;;;;;;;9.83;2.80;;;5.30;99.90;;;;;;12861679;23;20274;-77
2022/01/05 20:59:42;;;;;;;7.57;3.07;;;5.30;99.90;;;;;;12833222;23;20230;-78
2022/01/05 21:04:45;;;;;;;6.47;3.10;;;5.30;99.90;;;;;;12863435;23;20192;-77
2022/01/05 21:09:47;;;;;;;10.57;3.33;;;5.30;99.90;;;;;;12861100;23;20200;-77
2022/01/05 21:14:48;;;;;;;6.90;2.93;;;5.30;99.90;;;;;;12861312;23;20230;-77
2022/01/05 21:19:48;;;;;;;11.07;2.93;;;5.30;99.90;;;;;;12865707;23;20540;-77
2022/01/05 21:24:49;;;;;;;12.33;3.30;;;5.30;99.90;;;;;;12862869;23;20581;-77
2022/01/05 21:29:49;;;;;;;6.17;2.70;;;5.30;99.90;;;;;;12858287;23;20200;-76
2022/01/05 21:34:50;;;;;;;9.80;3.10;;;5.30;99.90;;;;;;12856870;23;20548;-77
2022/01/05 21:39:57;;;;;;;12.87;3.43;;;5.40;99.90;;;;;;12835154;23;20224;-77
2022/01/05 21:44:58;;;;;;;6.37;2.80;;;5.40;99.90;;;;;;12862458;23;20270;-79
2022/01/05 21:50:01;;;;;;;8.90;2.70;;;5.40;99.90;;;;;;12856993;23;20204;-78
2022/01/05 21:55:03;;;;;;;13.10;3.40;;;5.40;99.90;;;;;;12856523;23;20207;-77
2022/01/05 22:00:10;;;;;;;11.63;3.47;;;5.40;99.90;;;;;;12857480;23;20611;-77
2022/01/05 22:05:11;;;;;;;7.53;2.70;;;5.40;99.90;;;;;;12811686;23;20465;-78
2022/01/05 22:10:12;;;;;;;9.50;3.43;;;5.40;99.90;;;;;;12863773;23;20152;-78
2022/01/05 22:15:15;;;;;;;6.87;3.00;;;5.40;99.90;;;;;;12837422;23;20156;-77
2022/01/05 22:20:19;;;;;;;12.13;4.07;;;5.40;99.90;;;;;;12836884;23;20180;-77
2022/01/05 22:25:20;;;;;;;13.77;4.00;;;5.40;99.90;;;;;;12836060;23;20708;-76
2022/01/05 22:30:20;;;;;;;11.43;2.77;;;5.50;99.90;;;;;;12831895;23;20184;-77
2022/01/05 22:35:21;;;;;;;8.30;3.57;;;5.50;99.90;;;;;;12862342;23;20439;-78
2022/01/05 22:40:23;;;;;;;6.37;2.80;;;5.50;99.90;;;;;;12860698;23;20203;-76
2022/01/05 22:45:24;;;;;;;8.50;3.50;;;5.60;99.90;;;;;;12830492;23;20288;-77
2022/01/05 22:50:24;;;;;;;10.50;3.60;;;5.60;99.90;;;;;;12858167;23;20269;-75
2022/01/05 22:55:26;;;;;;;10.63;3.13;;;5.60;99.90;;;;;;12832613;23;20208;-75
2022/01/05 23:00:35;;;;;;;8.63;3.20;;;5.60;99.90;;;;;;12825434;23;20230;-75
2022/01/05 23:05:39;;;;;;;9.87;3.77;;;5.60;99.90;;;;;;12829815;23;20258;-76
2022/01/05 23:10:40;;;;;;;9.43;3.03;;;5.60;99.90;;;;;;12853796;23;20207;-76
2022/01/05 23:15:41;;;;;;;9.67;3.90;;;5.60;99.90;;;;;;12840602;23;20311;-76
2022/01/05 23:20:50;;;;;;;6.13;2.80;;;5.60;99.90;;;;;;12813896;23;20204;-76
2022/01/05 23:25:59;;;;;;;7.87;3.80;;;5.60;99.90;;;;;;12815194;23;20207;-75
2022/01/05 23:31:07;;;;;;;7.87;2.83;;;5.60;99.90;;;;;;12841730;23;20199;-76
2022/01/05 23:36:11;;;;;;;5.53;3.23;;;5.60;99.90;;;;;;12835596;23;20203;-76
2022/01/05 23:41:15;;;;;;;7.90;2.70;;;5.60;99.90;;;;;;12827472;23;20203;-75
2022/01/05 23:46:16;;;;;;;8.93;3.40;;;5.60;99.90;;;;;;12829162;23;20200;-74
2022/01/05 23:51:18;;;;;;;7.93;3.10;;;5.60;99.90;;;;;;12829075;23;20259;-76
2022/01/05 23:56:20;;;;;;;7.93;2.80;;;5.60;99.90;;;;;;12788360;23;20204;-75
